Time;durP1;ratioP1;P1;durP2;ratioP2;P2;SDS_P1;SDS_P2;PMS_P1;PMS_P2;Temp;Humidity;BMP_temperature;BMP_pressure;BME280_temperature;BME280_humidity;BME280_pressure;Samples;Min_cycle;Max_cycle;Signal;HPM_P1;HPM_P2
2023/02/15 00:01:07;;;;;;;181.20;69.83;;;1.00;99.90;;;;;;4803078;29;20228;-61
2023/02/15 00:04:14;;;;;;;185.87;70.60;;;1.20;99.90;;;;;;4801225;29;20289;-62
2023/02/15 00:07:20;;;;;;;190.07;71.50;;;1.30;99.90;;;;;;4803431;29;20300;-62
2023/02/15 00:10:26;;;;;;;195.63;76.27;;;1.40;99.90;;;;;;4803080;29;20255;-61
2023/02/15 00:13:35;;;;;;;181.40;72.50;;;1.40;99.90;;;;;;4804533;29;20584;-62
2023/02/15 00:16:42;;;;;;;179.30;69.77;;;1.50;99.90;;;;;;4797478;29;20743;-61
2023/02/15 00:19:49;;;;;;;176.73;69.40;;;1.50;99.90;;;;;;4803603;29;20634;-61
2023/02/15 00:22:55;;;;;;;176.73;67.23;;;1.40;99.90;;;;;;4802400;29;20239;-62
2023/02/15 00:26:05;;;;;;;170.13;64.87;;;1.30;99.90;;;;;;4791444;29;20236;-62
2023/02/15 00:29:14;;;;;;;179.93;67.73;;;1.20;99.90;;;;;;4802542;29;20234;-61
2023/02/15 00:32:20;;;;;;;158.13;61.27;;;1.10;99.90;;;;;;4799482;29;20589;-62
2023/02/15 00:35:26;;;;;;;177.87;67.50;;;1.00;99.90;;;;;;4799257;29;20235;-62
2023/02/15 00:38:32;;;;;;;172.83;65.13;;;1.00;99.90;;;;;;4799876;29;20789;-62
2023/02/15 00:41:39;;;;;;;190.10;69.17;;;0.90;99.90;;;;;;4800295;29;20339;-61
2023/02/15 00:44:46;;;;;;;170.33;64.93;;;0.90;99.90;;;;;;4804909;29;20228;-62
2023/02/15 00:47:53;;;;;;;170.30;67.40;;;0.80;99.90;;;;;;4804414;29;20236;-62
2023/02/15 00:51:01;;;;;;;177.27;67.27;;;0.70;99.90;;;;;;4799038;29;20577;-60
2023/02/15 00:54:08;;;;;;;161.60;61.47;;;0.70;99.90;;;;;;4797874;29;20566;-59
2023/02/15 00:57:14;;;;;;;174.57;66.30;;;0.70;99.90;;;;;;4807833;29;20269;-59
2023/02/15 01:00:22;;;;;;;174.03;67.67;;;0.60;99.90;;;;;;4820685;29;20214;-60
2023/02/15 01:03:28;;;;;;;165.43;66.47;;;0.60;99.90;;;;;;4821021;29;20232;-59
2023/02/15 01:06:33;;;;;;;161.63;63.00;;;0.50;99.90;;;;;;4817213;29;20568;-59
2023/02/15 01:09:39;;;;;;;169.67;66.33;;;0.50;99.90;;;;;;4821761;29;20208;-59
2023/02/15 01:12:45;;;;;;;167.77;64.63;;;0.40;99.90;;;;;;4818293;29;20283;-59
2023/02/15 01:15:56;;;;;;;167.00;64.00;;;0.40;99.90;;;;;;4819783;29;20252;-59
2023/02/15 01:19:03;;;;;;;156.70;60.77;;;0.40;99.90;;;;;;4819493;29;20223;-59
2023/02/15 01:22:09;;;;;;;168.37;63.83;;;0.30;99.90;;;;;;4822285;29;20211;-59
2023/02/15 01:25:15;;;;;;;177.13;66.97;;;0.30;99.90;;;;;;4817803;29;20311;-59
2023/02/15 01:28:21;;;;;;;173.80;65.20;;;0.30;99.90;;;;;;4818699;29;20212;-59
2023/02/15 01:31:28;;;;;;;173.60;64.23;;;0.30;99.90;;;;;;4812569;29;20258;-59
2023/02/15 01:34:33;;;;;;;168.17;64.07;;;0.20;99.90;;;;;;4819004;29;20222;-59
2023/02/15 01:37:39;;;;;;;167.03;62.17;;;0.20;99.90;;;;;;4821009;29;20235;-59
2023/02/15 01:40:46;;;;;;;156.00;62.37;;;0.10;99.90;;;;;;4821463;29;20235;-59
2023/02/15 01:43:53;;;;;;;167.57;64.13;;;0.10;99.90;;;;;;4814066;29;20262;-59
2023/02/15 01:47:00;;;;;;;167.10;61.67;;;0.10;99.90;;;;;;4812398;29;21086;-59
2023/02/15 01:50:12;;;;;;;177.37;66.93;;;0.10;99.90;;;;;;4817033;29;20232;-59
2023/02/15 01:53:24;;;;;;;180.60;69.00;;;0.10;99.90;;;;;;4819550;29;20235;-59
2023/02/15 01:56:34;;;;;;;190.97;69.87;;;0.40;99.90;;;;;;4823920;29;20271;-59
2023/02/15 01:59:43;;;;;;;202.43;73.40;;;0.50;99.90;;;;;;4804675;29;20273;-59
2023/02/15 02:02:54;;;;;;;188.63;70.70;;;0.60;99.90;;;;;;4816397;29;20316;-59
2023/02/15 02:06:00;;;;;;;171.43;66.63;;;0.50;99.90;;;;;;4818731;29;20235;-59
2023/02/15 02:09:07;;;;;;;182.30;70.80;;;0.40;99.90;;;;;;4818072;29;20263;-59
2023/02/15 02:12:13;;;;;;;187.40;69.20;;;0.30;99.90;;;;;;4817953;29;20263;-60
2023/02/15 02:15:28;;;;;;;185.37;69.53;;;0.30;99.90;;;;;;4816902;29;20236;-59
2023/02/15 02:18:47;;;;;;;179.17;65.63;;;0.20;99.90;;;;;;4816199;29;20260;-59
2023/02/15 02:22:21;;;;;;;181.53;65.07;;;0.00;99.90;;;;;;4814499;29;20255;-59
2023/02/15 02:25:55;;;;;;;168.10;63.67;;;0.00;99.90;;;;;;4818179;29;20246;-59
2023/02/15 02:29:31;;;;;;;177.43;64.70;;;-0.10;99.90;;;;;;4812081;29;20359;-59
2023/02/15 02:33:13;;;;;;;164.20;61.87;;;-0.20;99.90;;;;;;4816340;29;20578;-59
2023/02/15 02:36:29;;;;;;;175.47;61.83;;;-0.20;99.90;;;;;;4820847;29;20219;-59
2023/02/15 02:39:41;;;;;;;183.73;65.40;;;-0.20;99.90;;;;;;4819884;29;20347;-59
2023/02/15 02:42:55;;;;;;;158.97;62.23;;;-0.10;99.90;;;;;;4827087;29;20240;-59
2023/02/15 02:46:11;;;;;;;154.33;57.90;;;0.00;99.90;;;;;;4823349;29;20262;-59
2023/02/15 02:49:17;;;;;;;157.33;58.73;;;-0.10;99.90;;;;;;4821504;29;20294;-59
2023/02/15 02:52:42;;;;;;;156.70;59.03;;;-0.10;99.90;;;;;;4822160;29;20273;-59
2023/02/15 02:55:53;;;;;;;160.77;60.53;;;-0.10;99.90;;;;;;4817690;29;20747;-59
2023/02/15 02:59:02;;;;;;;167.50;62.07;;;0.00;99.90;;;;;;4820601;29;20584;-59
2023/02/15 03:02:14;;;;;;;174.37;64.37;;;0.00;99.90;;;;;;4818832;29;20200;-59
2023/02/15 03:05:25;;;;;;;163.37;59.63;;;0.00;99.90;;;;;;4816087;29;20241;-59
2023/02/15 03:08:37;;;;;;;196.77;66.63;;;0.00;99.90;;;;;;4820716;29;20768;-59
2023/02/15 03:11:45;;;;;;;200.13;70.63;;;0.20;99.90;;;;;;4822341;29;20231;-59
2023/02/15 03:14:54;;;;;;;192.77;67.03;;;0.30;99.90;;;;;;4822441;29;20269;-59
2023/02/15 03:18:03;;;;;;;180.57;63.63;;;0.30;99.90;;;;;;4822739;29;20269;-59
2023/02/15 03:21:21;;;;;;;194.87;67.70;;;0.20;99.90;;;;;;4822110;29;20271;-60
2023/02/15 03:24:33;;;;;;;184.17;65.83;;;0.20;99.90;;;;;;4821294;29;20722;-59
2023/02/15 03:27:41;;;;;;;166.70;61.67;;;0.20;99.90;;;;;;4818475;29;20644;-59
2023/02/15 03:30:53;;;;;;;188.83;63.07;;;0.20;99.90;;;;;;4817181;29;20204;-59
2023/02/15 03:34:02;;;;;;;198.43;66.77;;;0.10;99.90;;;;;;4821275;29;20576;-59
2023/02/15 03:37:14;;;;;;;174.30;62.67;;;0.20;99.90;;;;;;4822894;29;20354;-59
2023/02/15 03:43:54;;;;;;;180.37;64.70;;;0.10;99.90;;;;;;4814483;29;20254;-59
2023/02/15 03:47:06;;;;;;;188.00;65.00;;;0.10;99.90;;;;;;4819124;29;20260;-59
2023/02/15 03:53:37;;;;;;;191.67;63.97;;;-0.10;99.90;;;;;;4822989;29;20252;-59
2023/02/15 04:01:56;;;;;;;179.30;62.17;;;-0.10;99.90;;;;;;4812241;29;20289;-60
2023/02/15 04:03:42;;;;;;;191.77;64.23;;;-0.10;99.90;;;;;;4819865;29;20228;-59
2023/02/15 04:06:48;;;;;;;175.03;59.70;;;-0.10;99.90;;;;;;4818956;29;20228;-59
2023/02/15 04:13:18;;;;;;;173.77;59.63;;;-0.10;99.90;;;;;;4819013;29;20723;-60
2023/02/15 04:16:24;;;;;;;174.80;58.50;;;-0.20;99.90;;;;;;4818676;29;20211;-60
2023/02/15 04:26:17;;;;;;;176.63;60.17;;;-0.20;99.90;;;;;;4815622;29;20247;-59
2023/02/15 04:29:25;;;;;;;166.53;59.37;;;-0.30;99.90;;;;;;4820903;29;20210;-60
2023/02/15 04:32:31;;;;;;;167.63;59.27;;;-0.30;99.90;;;;;;4821480;29;20599;-60
2023/02/15 04:35:37;;;;;;;180.47;61.00;;;-0.30;99.90;;;;;;4822729;29;20253;-59
2023/02/15 04:38:43;;;;;;;169.87;59.33;;;-0.30;99.90;;;;;;4820617;29;20240;-59
2023/02/15 04:41:48;;;;;;;179.50;60.10;;;-0.30;99.90;;;;;;4822340;29;20676;-59
2023/02/15 04:44:56;;;;;;;164.73;60.07;;;-0.30;99.90;;;;;;4822883;29;20208;-59
2023/02/15 04:48:01;;;;;;;174.60;59.30;;;-0.30;99.90;;;;;;4822749;29;20832;-60
2023/02/15 04:51:09;;;;;;;167.53;56.20;;;-0.30;99.90;;;;;;4823418;29;20207;-59
2023/02/15 04:54:14;;;;;;;178.77;58.30;;;-0.40;99.90;;;;;;4821520;29;20235;-59
2023/02/15 04:57:20;;;;;;;171.70;58.53;;;-0.40;99.90;;;;;;4818060;29;20275;-59
2023/02/15 05:00:28;;;;;;;173.87;57.53;;;-0.40;99.90;;;;;;4818095;29;20691;-59
2023/02/15 05:03:34;;;;;;;170.13;57.93;;;-0.30;99.90;;;;;;4819285;29;20254;-59
2023/02/15 05:06:40;;;;;;;172.37;57.73;;;-0.20;99.90;;;;;;4815166;29;20228;-59
2023/02/15 05:09:46;;;;;;;177.77;59.30;;;0.00;99.90;;;;;;4812624;29;20275;-59
2023/02/15 05:12:51;;;;;;;175.17;60.67;;;0.30;99.90;;;;;;4821491;29;20223;-60
2023/02/15 05:15:59;;;;;;;191.83;60.63;;;0.50;99.90;;;;;;4820557;29;20730;-60
2023/02/15 05:19:05;;;;;;;188.87;60.27;;;0.70;99.90;;;;;;4819697;29;20285;-60
2023/02/15 05:22:10;;;;;;;173.07;60.73;;;0.80;99.90;;;;;;4820004;29;20254;-60
2023/02/15 05:28:40;;;;;;;173.60;58.43;;;0.90;99.90;;;;;;4820310;29;20240;-60
2023/02/15 05:31:47;;;;;;;162.27;58.63;;;0.80;99.90;;;;;;4819516;29;20211;-59
2023/02/15 05:34:53;;;;;;;169.27;57.07;;;0.70;99.90;;;;;;4815153;29;20269;-59
2023/02/15 05:37:59;;;;;;;164.03;57.10;;;0.70;99.90;;;;;;4817589;29;20209;-60
2023/02/15 05:41:05;;;;;;;174.70;58.30;;;0.60;99.90;;;;;;4819762;29;20211;-59
2023/02/15 05:44:12;;;;;;;173.53;58.00;;;0.70;99.90;;;;;;4818028;29;20263;-59
2023/02/15 05:47:20;;;;;;;161.97;57.27;;;0.70;99.90;;;;;;4819258;29;20228;-60
2023/02/15 05:50:26;;;;;;;166.43;57.30;;;0.60;99.90;;;;;;4809327;29;20610;-59
2023/02/15 05:53:36;;;;;;;182.80;60.50;;;0.70;99.90;;;;;;4819242;29;20228;-59
2023/02/15 05:56:41;;;;;;;167.40;55.83;;;0.80;99.90;;;;;;4818260;29;20247;-59
2023/02/15 05:59:48;;;;;;;168.23;56.80;;;1.00;99.90;;;;;;4814227;29;20288;-59
2023/02/15 06:02:55;;;;;;;163.20;57.17;;;1.10;99.90;;;;;;4815978;29;20239;-59
2023/02/15 06:06:04;;;;;;;160.27;55.00;;;1.10;99.90;;;;;;4813375;29;20987;-59
2023/02/15 06:09:14;;;;;;;151.07;56.67;;;1.10;99.90;;;;;;4818100;29;20267;-60
2023/02/15 06:12:20;;;;;;;151.63;54.23;;;1.20;99.90;;;;;;4821856;29;20204;-59
2023/02/15 06:15:26;;;;;;;155.07;55.70;;;1.20;99.90;;;;;;4818792;29;20216;-59
2023/02/15 06:18:35;;;;;;;147.93;54.63;;;1.20;99.90;;;;;;4814489;29;20255;-60
2023/02/15 06:21:41;;;;;;;154.83;55.03;;;1.20;99.90;;;;;;4820512;29;20281;-60
2023/02/15 06:24:46;;;;;;;152.03;56.73;;;1.10;99.90;;;;;;4822979;29;20300;-60
2023/02/15 06:27:52;;;;;;;149.00;55.73;;;1.10;99.90;;;;;;4824809;29;20231;-59
2023/02/15 06:30:58;;;;;;;141.70;54.60;;;1.00;99.90;;;;;;4816795;29;20252;-59
2023/02/15 06:34:05;;;;;;;145.33;53.23;;;0.90;99.90;;;;;;4821785;29;20273;-59
2023/02/15 06:37:11;;;;;;;150.90;56.00;;;0.80;99.90;;;;;;4829117;29;20236;-59
2023/02/15 06:40:17;;;;;;;147.57;53.77;;;0.80;99.90;;;;;;4818078;29;20235;-59
2023/02/15 06:43:23;;;;;;;137.33;51.53;;;0.70;99.90;;;;;;4821004;29;20704;-59
2023/02/15 06:46:29;;;;;;;145.70;54.40;;;0.80;99.90;;;;;;4823069;29;20249;-59
2023/02/15 06:49:36;;;;;;;137.17;52.43;;;0.80;99.90;;;;;;4820549;29;20265;-59
2023/02/15 06:52:42;;;;;;;141.70;53.17;;;0.90;99.90;;;;;;4818588;29;20279;-59
2023/02/15 06:55:48;;;;;;;135.67;51.10;;;0.90;99.90;;;;;;4808787;29;20603;-59
2023/02/15 06:58:54;;;;;;;139.30;53.03;;;0.80;99.90;;;;;;4819692;29;20231;-59
2023/02/15 07:02:00;;;;;;;140.47;53.50;;;0.70;99.90;;;;;;4819350;29;20239;-59
2023/02/15 07:05:07;;;;;;;130.07;51.90;;;0.70;99.90;;;;;;4821929;29;20758;-59
2023/02/15 07:08:13;;;;;;;127.23;51.80;;;0.70;99.90;;;;;;4820908;29;20241;-60
2023/02/15 07:14:42;;;;;;;129.13;51.17;;;0.80;99.90;;;;;;4819253;29;20744;-59
2023/02/15 07:17:48;;;;;;;143.20;52.97;;;0.80;99.90;;;;;;4820006;29;20208;-59
2023/02/15 07:20:55;;;;;;;137.97;52.27;;;0.90;99.90;;;;;;4817878;29;20280;-59
2023/02/15 07:24:00;;;;;;;129.70;50.43;;;0.90;99.90;;;;;;4823325;29;20228;-60
2023/02/15 07:27:08;;;;;;;145.23;53.17;;;0.90;99.90;;;;;;4821423;29;20236;-59
2023/02/15 07:30:16;;;;;;;129.67;52.93;;;0.90;99.90;;;;;;4818210;29;20235;-59
2023/02/15 07:33:26;;;;;;;139.83;51.70;;;0.90;99.90;;;;;;4823505;29;20249;-60
2023/02/15 07:36:33;;;;;;;130.73;51.03;;;1.10;99.90;;;;;;4820231;29;20280;-60
2023/02/15 07:39:39;;;;;;;129.17;48.27;;;1.20;99.90;;;;;;4819782;29;20353;-59
2023/02/15 07:42:44;;;;;;;128.03;50.00;;;1.30;99.90;;;;;;4821174;29;20200;-59
2023/02/15 07:45:50;;;;;;;130.53;50.83;;;1.50;99.90;;;;;;4819043;29;20755;-59
2023/02/15 07:48:56;;;;;;;123.67;48.90;;;1.60;99.90;;;;;;4817245;29;20223;-60
2023/02/15 07:52:03;;;;;;;121.70;49.10;;;1.80;99.90;;;;;;4820286;29;20228;-60
2023/02/15 07:55:12;;;;;;;112.80;48.67;;;1.90;99.90;;;;;;4821120;29;20301;-59
2023/02/15 07:58:18;;;;;;;118.40;48.50;;;2.00;99.90;;;;;;4817251;29;20599;-59
2023/02/15 08:01:28;;;;;;;128.73;48.70;;;2.10;99.90;;;;;;4818933;29;20233;-59
2023/02/15 08:04:34;;;;;;;125.90;48.73;;;2.20;99.90;;;;;;4822339;29;20252;-59
2023/02/15 08:07:41;;;;;;;114.77;47.90;;;2.30;99.90;;;;;;4822800;29;20255;-59
2023/02/15 08:14:12;;;;;;;111.30;47.67;;;2.60;99.90;;;;;;4818772;29;20260;-60
2023/02/15 08:17:18;;;;;;;111.20;45.17;;;2.80;99.90;;;;;;4820177;29;20637;-60
2023/02/15 08:20:24;;;;;;;109.90;45.03;;;2.90;99.90;;;;;;4818797;29;20226;-60
2023/02/15 08:23:31;;;;;;;105.10;44.07;;;3.00;99.90;;;;;;4816163;29;20307;-60
2023/02/15 08:26:38;;;;;;;96.90;42.93;;;3.20;99.90;;;;;;4821767;29;20236;-60
2023/02/15 08:29:46;;;;;;;88.27;40.03;;;3.30;99.90;;;;;;4820619;29;20261;-60
2023/02/15 08:32:52;;;;;;;96.53;40.43;;;3.50;99.90;;;;;;4822378;29;20240;-61
2023/02/15 08:36:03;;;;;;;83.30;38.90;;;3.80;99.90;;;;;;4820753;29;20683;-61
2023/02/15 08:39:11;;;;;;;87.67;37.77;;;4.10;99.90;;;;;;4818993;29;20725;-61
2023/02/15 08:42:17;;;;;;;79.27;37.13;;;4.40;99.90;;;;;;4819136;29;20241;-61
2023/02/15 08:45:25;;;;;;;77.80;37.00;;;4.60;99.90;;;;;;4823461;29;20223;-61
2023/02/15 08:48:31;;;;;;;73.80;35.50;;;4.70;99.90;;;;;;4811345;29;20568;-61
2023/02/15 08:51:39;;;;;;;84.90;37.23;;;4.80;99.90;;;;;;4818953;29;20227;-61
2023/02/15 08:54:46;;;;;;;66.73;33.30;;;5.00;99.90;;;;;;4820937;29;20235;-61
2023/02/15 08:57:55;;;;;;;67.20;33.47;;;5.20;99.90;;;;;;4819684;29;20227;-61
2023/02/15 09:01:02;;;;;;;68.03;33.77;;;5.50;99.90;;;;;;4823462;29;20350;-62
2023/02/15 09:04:09;;;;;;;64.93;32.00;;;5.70;99.90;;;;;;4823342;29;20247;-62
2023/02/15 09:07:18;;;;;;;66.13;32.97;;;6.00;99.90;;;;;;4821380;29;20835;-61
2023/02/15 09:10:26;;;;;;;66.60;32.73;;;6.10;99.90;;;;;;4819031;29;20747;-61
2023/02/15 09:13:32;;;;;;;69.77;32.17;;;6.20;99.90;;;;;;4824354;29;20272;-61
2023/02/15 09:16:38;;;;;;;58.33;31.63;;;6.40;99.90;;;;;;4818001;29;20253;-62
2023/02/15 09:19:45;;;;;;;61.40;30.00;;;6.70;99.90;;;;;;4817267;29;20227;-61
2023/02/15 09:22:52;;;;;;;60.93;29.37;;;7.10;99.90;;;;;;4817587;29;20354;-61
2023/02/15 09:26:10;;;;;;;54.83;26.10;;;7.50;99.90;;;;;;4816122;29;20281;-61
2023/02/15 09:29:17;;;;;;;56.60;26.53;;;7.80;99.90;;;;;;4822182;29;20683;-61
2023/02/15 09:32:23;;;;;;;49.87;25.37;;;7.90;99.90;;;;;;4822402;29;20260;-61
2023/02/15 09:35:29;;;;;;;52.87;26.13;;;8.10;99.90;;;;;;4819015;29;20235;-61
2023/02/15 09:38:35;;;;;;;56.70;25.33;;;8.20;99.90;;;;;;4822555;29;20204;-61
2023/02/15 09:42:20;;;;;;;53.67;25.10;;;8.40;99.90;;;;;;4822069;29;20231;-61
2023/02/15 09:45:39;;;;;;;56.33;27.20;;;8.70;99.90;;;;;;4820954;29;20232;-61
2023/02/15 09:48:50;;;;;;;51.47;25.80;;;8.90;99.90;;;;;;4818492;29;20227;-61
2023/02/15 09:52:15;;;;;;;48.40;24.50;;;9.10;99.90;;;;;;4823536;29;20224;-61
2023/02/15 09:55:36;;;;;;;48.37;24.57;;;9.30;99.90;;;;;;4822571;29;20617;-61
2023/02/15 09:58:52;;;;;;;50.13;24.77;;;9.30;99.90;;;;;;4817093;29;20596;-61
2023/02/15 10:02:11;;;;;;;45.43;24.17;;;9.50;99.90;;;;;;4823450;29;20224;-61
2023/02/15 10:05:28;;;;;;;46.90;23.30;;;9.70;99.90;;;;;;4822300;29;20212;-61
2023/02/15 10:08:50;;;;;;;47.10;23.67;;;9.70;99.90;;;;;;4811488;29;20358;-62
2023/02/15 10:12:12;;;;;;;45.50;24.83;;;9.80;99.90;;;;;;4819499;29;20707;-61
2023/02/15 10:15:41;;;;;;;47.50;24.53;;;10.00;99.90;;;;;;4823915;29;20265;-62
2023/02/15 10:19:00;;;;;;;45.10;23.17;;;10.40;99.90;;;;;;4822151;29;20687;-62
2023/02/15 10:22:22;;;;;;;46.40;23.87;;;10.80;99.90;;;;;;4817777;29;20233;-62
2023/02/15 10:25:42;;;;;;;43.77;23.37;;;11.00;99.90;;;;;;4814736;29;20324;-62
2023/02/15 10:28:50;;;;;;;45.57;24.97;;;10.90;99.90;;;;;;4827323;29;20188;-62
2023/02/15 10:32:05;;;;;;;45.07;22.80;;;10.80;99.90;;;;;;4821525;29;20254;-62
2023/02/15 10:35:21;;;;;;;44.80;23.97;;;10.90;99.90;;;;;;4827858;29;20204;-62
2023/02/15 10:38:38;;;;;;;43.50;22.83;;;10.80;99.90;;;;;;4813724;29;20731;-62
2023/02/15 10:41:52;;;;;;;42.53;23.77;;;11.20;99.90;;;;;;4823293;29;20346;-62
2023/02/15 10:45:19;;;;;;;40.03;22.97;;;11.40;99.90;;;;;;4817695;29;20196;-62
2023/02/15 10:48:38;;;;;;;43.60;23.80;;;11.70;99.90;;;;;;4818996;29;20708;-62
2023/02/15 10:51:57;;;;;;;48.40;24.43;;;12.00;99.90;;;;;;4805680;29;20194;-62
2023/02/15 10:55:10;;;;;;;43.40;24.70;;;12.40;99.90;;;;;;4812775;29;20197;-62
2023/02/15 10:58:27;;;;;;;42.97;24.43;;;12.20;99.90;;;;;;4808683;29;20281;-62
2023/02/15 11:01:36;;;;;;;45.07;24.50;;;12.00;99.90;;;;;;4829643;29;20220;-62
2023/02/15 11:04:56;;;;;;;42.83;25.40;;;11.90;99.90;;;;;;4826374;29;20606;-62
2023/02/15 11:08:07;;;;;;;52.47;25.60;;;11.70;99.90;;;;;;4825745;29;20251;-62
2023/02/15 11:11:21;;;;;;;43.93;25.27;;;11.50;99.90;;;;;;4825099;29;20259;-62
2023/02/15 11:14:38;;;;;;;51.57;26.57;;;11.20;99.90;;;;;;4825446;29;20239;-62
2023/02/15 11:17:51;;;;;;;47.80;25.37;;;11.10;99.90;;;;;;4825441;29;20202;-62
2023/02/15 11:21:02;;;;;;;49.10;26.47;;;11.10;99.90;;;;;;4825215;29;20204;-61
2023/02/15 11:24:14;;;;;;;48.57;26.27;;;11.00;99.90;;;;;;4819896;29;20244;-61
2023/02/15 11:27:22;;;;;;;53.13;27.43;;;11.10;99.90;;;;;;4824894;29;20696;-62
2023/02/15 11:30:39;;;;;;;49.73;26.27;;;11.00;99.90;;;;;;4821938;29;20255;-62
2023/02/15 11:33:48;;;;;;;49.17;26.90;;;11.10;99.90;;;;;;4824314;29;20273;-61
2023/02/15 11:36:56;;;;;;;49.40;27.57;;;11.20;99.90;;;;;;4825538;29;20204;-62
2023/02/15 11:40:22;;;;;;;47.27;26.70;;;11.40;99.90;;;;;;4821323;29;20200;-62
2023/02/15 11:43:31;;;;;;;47.80;25.67;;;11.60;99.90;;;;;;4807725;29;20365;-62
2023/02/15 11:46:38;;;;;;;51.03;26.47;;;12.00;99.90;;;;;;4823446;29;20232;-62
2023/02/15 11:49:46;;;;;;;51.70;25.80;;;12.30;99.90;;;;;;4822759;29;20231;-62
2023/02/15 11:52:57;;;;;;;49.07;27.27;;;12.40;99.90;;;;;;4813960;29;20232;-62
2023/02/15 11:56:05;;;;;;;49.57;25.40;;;12.40;99.90;;;;;;4824528;29;20283;-62
2023/02/15 11:59:16;;;;;;;50.00;27.07;;;12.30;99.90;;;;;;4825514;29;20243;-62
2023/02/15 12:02:26;;;;;;;50.40;26.13;;;12.00;99.90;;;;;;4821134;29;20239;-62
2023/02/15 12:05:34;;;;;;;50.63;26.57;;;12.00;99.90;;;;;;4823197;29;20537;-62
2023/02/15 12:08:44;;;;;;;51.97;26.43;;;12.10;99.90;;;;;;4820357;29;20232;-62
2023/02/15 12:11:50;;;;;;;54.63;28.53;;;12.10;99.90;;;;;;4823231;29;20289;-62
2023/02/15 12:14:58;;;;;;;63.00;28.10;;;12.30;99.90;;;;;;4823318;29;20224;-62
2023/02/15 12:18:05;;;;;;;48.43;27.37;;;12.50;99.90;;;;;;4822582;29;20231;-62
2023/02/15 12:21:13;;;;;;;53.23;28.27;;;12.60;99.90;;;;;;4825290;29;20280;-62
2023/02/15 12:24:22;;;;;;;48.63;27.80;;;12.60;99.90;;;;;;4824888;29;20621;-62
2023/02/15 12:27:31;;;;;;;48.80;26.83;;;12.70;99.90;;;;;;4825114;29;20366;-62
2023/02/15 12:30:38;;;;;;;52.47;27.30;;;12.70;99.90;;;;;;4807690;29;20368;-62
2023/02/15 12:33:45;;;;;;;53.50;26.53;;;13.00;99.90;;;;;;4816919;29;20256;-62
2023/02/15 12:36:57;;;;;;;48.70;27.63;;;13.10;99.90;;;;;;4823241;29;20544;-62
2023/02/15 12:40:20;;;;;;;46.70;27.47;;;13.30;99.90;;;;;;4825049;29;20338;-62
2023/02/15 12:43:33;;;;;;;51.83;28.10;;;13.30;99.90;;;;;;4821739;29;20273;-62
2023/02/15 12:46:39;;;;;;;48.90;26.63;;;13.50;99.90;;;;;;4818118;29;20227;-62
2023/02/15 12:54:03;;;;;;;51.23;26.27;;;13.60;99.90;;;;;;4824189;29;20622;-62
2023/02/15 12:57:35;;;;;;;49.13;27.57;;;13.60;99.90;;;;;;4824217;29;20281;-63
2023/02/15 13:00:42;;;;;;;49.30;26.63;;;13.40;99.90;;;;;;4824200;29;20233;-62
2023/02/15 13:04:01;;;;;;;49.70;26.83;;;13.40;99.90;;;;;;4824637;29;20208;-62
2023/02/15 13:07:12;;;;;;;55.67;27.37;;;13.20;99.90;;;;;;4824425;29;20237;-62
2023/02/15 13:10:28;;;;;;;49.23;25.97;;;13.20;99.90;;;;;;4805635;29;20240;-62
2023/02/15 13:13:36;;;;;;;51.27;27.30;;;13.20;99.90;;;;;;4805429;29;20220;-62
2023/02/15 13:16:46;;;;;;;54.10;28.10;;;13.40;99.90;;;;;;4824301;29;20616;-62
2023/02/15 13:19:54;;;;;;;54.23;26.83;;;13.50;99.90;;;;;;4823882;29;20197;-62
2023/02/15 13:23:05;;;;;;;52.13;25.77;;;13.50;99.90;;;;;;4823896;29;20601;-62
2023/02/15 13:26:16;;;;;;;51.60;26.17;;;13.50;99.90;;;;;;4823968;29;20200;-62
2023/02/15 13:29:25;;;;;;;48.30;26.97;;;13.40;99.90;;;;;;4823851;29;20235;-62
2023/02/15 13:32:37;;;;;;;49.83;26.30;;;13.60;99.90;;;;;;4823778;29;20271;-62
2023/02/15 13:35:50;;;;;;;50.50;26.87;;;13.60;99.90;;;;;;4824323;29;20189;-62
2023/02/15 13:39:10;;;;;;;50.17;26.00;;;13.50;99.90;;;;;;4824315;29;20231;-62
2023/02/15 13:42:22;;;;;;;42.73;25.47;;;13.50;99.90;;;;;;4824216;29;20253;-62
2023/02/15 13:45:40;;;;;;;45.23;25.87;;;13.70;99.90;;;;;;4823878;29;20536;-62
2023/02/15 13:48:59;;;;;;;44.87;25.20;;;13.70;99.90;;;;;;4823629;29;20288;-62
2023/02/15 13:52:18;;;;;;;45.80;25.27;;;13.50;99.90;;;;;;4805212;29;20217;-62
2023/02/15 13:55:46;;;;;;;49.43;26.37;;;13.30;99.90;;;;;;4805374;29;20251;-62
2023/02/15 13:59:28;;;;;;;48.40;26.23;;;13.10;99.90;;;;;;4820051;29;20243;-62
2023/02/15 14:03:03;;;;;;;51.67;27.33;;;13.10;99.90;;;;;;4786964;29;20704;-62
2023/02/15 14:06:21;;;;;;;54.00;27.40;;;13.10;99.90;;;;;;4805216;29;20578;-62
2023/02/15 14:09:41;;;;;;;51.93;26.97;;;13.00;99.90;;;;;;4820108;29;20267;-62
2023/02/15 14:13:06;;;;;;;50.63;28.07;;;13.00;99.90;;;;;;4824079;29;20223;-62
2023/02/15 14:16:21;;;;;;;48.00;27.10;;;13.10;99.90;;;;;;4823604;29;20228;-62
2023/02/15 14:19:35;;;;;;;52.30;26.17;;;13.10;99.90;;;;;;4823217;29;20637;-62
2023/02/15 14:22:46;;;;;;;49.80;27.10;;;13.10;99.90;;;;;;4813721;29;20572;-62
2023/02/15 14:25:58;;;;;;;48.37;26.27;;;13.00;99.90;;;;;;4823568;29;20231;-62
2023/02/15 14:29:15;;;;;;;45.87;25.70;;;13.10;99.90;;;;;;4822973;29;20285;-62
2023/02/15 14:32:28;;;;;;;48.37;26.63;;;13.00;99.90;;;;;;4824782;29;20231;-62
2023/02/15 14:35:35;;;;;;;53.17;27.40;;;13.10;99.90;;;;;;4825961;29;20318;-62
2023/02/15 14:38:54;;;;;;;52.53;28.57;;;13.10;99.90;;;;;;4826231;29;20270;-62
2023/02/15 14:42:04;;;;;;;54.47;27.80;;;13.00;99.90;;;;;;4826155;29;20224;-62
2023/02/15 14:45:21;;;;;;;53.27;29.47;;;13.00;99.90;;;;;;4826732;29;20228;-62
2023/02/15 14:48:31;;;;;;;49.33;27.50;;;13.00;99.90;;;;;;4808506;29;20875;-62
2023/02/15 14:52:01;;;;;;;50.00;27.07;;;13.10;99.90;;;;;;4808234;29;20577;-62
2023/02/15 14:55:09;;;;;;;49.83;26.80;;;13.10;99.90;;;;;;4807921;29;20247;-62
2023/02/15 14:58:16;;;;;;;49.37;26.90;;;13.00;99.90;;;;;;4824387;29;20605;-62
2023/02/15 15:01:27;;;;;;;51.90;28.30;;;13.00;99.90;;;;;;4826201;29;20533;-62
2023/02/15 15:04:37;;;;;;;50.47;26.87;;;12.90;99.90;;;;;;4825615;29;20284;-62
2023/02/15 15:07:46;;;;;;;48.17;26.57;;;12.80;99.90;;;;;;4825599;29;20207;-62
2023/02/15 15:10:54;;;;;;;50.70;27.77;;;12.80;99.90;;;;;;4825192;29;20357;-62
2023/02/15 15:14:01;;;;;;;53.47;28.23;;;12.70;99.90;;;;;;4825155;29;20223;-62
2023/02/15 15:17:10;;;;;;;55.67;28.47;;;12.70;99.90;;;;;;4825643;29;20188;-62
2023/02/15 15:20:45;;;;;;;49.33;26.93;;;12.60;99.90;;;;;;4825905;29;20568;-62
2023/02/15 15:23:51;;;;;;;52.47;27.77;;;12.60;99.90;;;;;;4825234;29;20211;-62
2023/02/15 15:27:30;;;;;;;49.50;27.20;;;12.50;99.90;;;;;;4824612;29;20624;-62
2023/02/15 15:31:05;;;;;;;49.47;26.87;;;12.40;99.90;;;;;;4824113;29;20330;-62
2023/02/15 15:34:40;;;;;;;46.50;25.97;;;12.20;99.90;;;;;;4824518;29;20707;-62
2023/02/15 15:38:23;;;;;;;50.73;26.83;;;12.00;99.90;;;;;;4814987;29;20208;-62
2023/02/15 15:41:42;;;;;;;48.80;26.87;;;12.00;99.90;;;;;;4821004;29;20728;-61
2023/02/15 15:45:18;;;;;;;47.67;27.03;;;11.90;99.90;;;;;;4820136;29;20722;-62
2023/02/15 15:48:37;;;;;;;53.57;27.30;;;11.70;99.90;;;;;;4824479;29;20346;-62
2023/02/15 15:51:46;;;;;;;48.33;27.63;;;11.60;99.90;;;;;;4821735;29;20213;-61
2023/02/15 15:54:55;;;;;;;51.97;27.17;;;11.50;99.90;;;;;;4812517;29;20357;-61
2023/02/15 15:58:04;;;;;;;51.13;27.67;;;11.40;99.90;;;;;;4824087;29;20236;-61
2023/02/15 16:01:13;;;;;;;49.30;27.10;;;11.30;99.90;;;;;;4813196;29;20236;-61
2023/02/15 16:04:29;;;;;;;58.13;28.23;;;11.30;99.90;;;;;;4821000;29;20259;-62
2023/02/15 16:07:35;;;;;;;55.60;28.17;;;11.20;99.90;;;;;;4814823;29;20228;-61
2023/02/15 16:10:42;;;;;;;60.83;29.37;;;11.10;99.90;;;;;;4818750;29;20362;-62
2023/02/15 16:13:51;;;;;;;53.30;28.30;;;11.00;99.90;;;;;;4823137;29;20219;-61
2023/02/15 16:17:01;;;;;;;54.00;28.23;;;11.00;99.90;;;;;;4822947;29;20668;-61
2023/02/15 16:20:18;;;;;;;53.23;27.77;;;10.90;99.90;;;;;;4820140;29;20707;-61
2023/02/15 16:23:49;;;;;;;52.77;27.63;;;10.80;99.90;;;;;;4823462;29;20256;-61
2023/02/15 16:27:16;;;;;;;51.27;26.60;;;10.80;99.90;;;;;;4822234;29;20282;-61
2023/02/15 16:30:26;;;;;;;52.17;27.73;;;10.70;99.90;;;;;;4818193;29;20621;-62
2023/02/15 16:33:37;;;;;;;54.77;28.63;;;10.60;99.90;;;;;;4821718;29;20319;-61
2023/02/15 16:36:44;;;;;;;51.63;28.47;;;10.50;99.90;;;;;;4820473;29;20204;-62
2023/02/15 16:39:51;;;;;;;55.20;29.07;;;10.40;99.90;;;;;;4816985;29;20877;-61
2023/02/15 16:43:02;;;;;;;57.17;28.87;;;10.40;99.90;;;;;;4818984;29;20762;-61
2023/02/15 16:46:13;;;;;;;59.17;30.03;;;10.20;99.90;;;;;;4818349;29;20283;-61